Time;durP1;ratioP1;P1;durP2;ratioP2;P2;SDS_P1;SDS_P2;PMS_P1;PMS_P2;Temp;Humidity;BMP_temperature;BMP_pressure;BME280_temperature;BME280_humidity;BME280_pressure;Samples;Min_cycle;Max_cycle;Signal;HPM_P1;HPM_P2
2023/11/30 00:00:14;;;;;;;18.33;12.88;;;;;;;16.50;100.00;101071.63;143725;666;47006;-66
2023/11/30 00:02:40;;;;;;;15.10;10.15;;;;;;;16.50;100.00;101070.81;143723;614;47002;-66
2023/11/30 00:05:08;;;;;;;16.67;11.43;;;;;;;16.51;100.00;101075.13;143723;579;47004;-67
2023/11/30 00:07:35;;;;;;;14.73;10.43;;;;;;;16.46;100.00;101072.31;143720;576;47930;-66
2023/11/30 00:10:03;;;;;;;16.87;10.55;;;;;;;16.44;100.00;101074.41;143723;587;47000;-66
2023/11/30 00:12:29;;;;;;;14.85;11.27;;;;;;;16.40;100.00;101074.06;143722;629;47002;-66
2023/11/30 00:14:55;;;;;;;17.35;11.93;;;;;;;16.36;100.00;101079.09;143722;573;47008;-67
2023/11/30 00:17:22;;;;;;;18.45;12.60;;;;;;;16.35;100.00;101082.84;143721;588;47004;-66
2023/11/30 00:19:48;;;;;;;20.50;12.02;;;;;;;16.37;100.00;101088.06;143721;621;47002;-66
2023/11/30 00:22:14;;;;;;;16.58;10.65;;;;;;;16.41;100.00;101089.28;143727;572;46008;-66
2023/11/30 00:24:40;;;;;;;18.50;12.65;;;;;;;16.39;100.00;101088.66;143721;614;47004;-66
2023/11/30 00:27:06;;;;;;;31.55;21.87;;;;;;;16.32;100.00;101086.03;143723;589;47008;-66
2023/11/30 00:29:33;;;;;;;25.02;19.05;;;;;;;16.29;100.00;101096.50;143722;572;47006;-65
2023/11/30 00:31:59;;;;;;;15.23;9.32;;;;;;;16.29;100.00;101108.19;143725;603;46008;-65
2023/11/30 00:34:25;;;;;;;15.05;8.20;;;;;;;16.33;100.00;101111.25;143722;575;47010;-66
2023/11/30 00:36:52;;;;;;;9.35;6.22;;;;;;;16.36;100.00;101108.91;143723;572;47008;-65
2023/11/30 00:39:18;;;;;;;13.32;6.60;;;;;;;16.41;100.00;101115.53;143723;580;46007;-65
2023/11/30 00:41:44;;;;;;;12.23;8.35;;;;;;;16.39;100.00;101115.78;143721;581;47002;-66
2023/11/30 00:44:11;;;;;;;13.25;9.15;;;;;;;16.31;100.00;101113.34;143722;602;47922;-66
2023/11/30 00:46:37;;;;;;;15.52;10.05;;;;;;;16.29;100.00;101121.72;143720;623;47004;-65
2023/11/30 00:49:03;;;;;;;14.30;8.68;;;;;;;16.30;100.00;101120.69;143722;597;47006;-65
2023/11/30 00:51:30;;;;;;;14.13;9.38;;;;;;;16.28;100.00;101121.94;143725;582;47000;-65
2023/11/30 00:53:56;;;;;;;12.35;8.30;;;;;;;16.21;100.00;101131.00;143725;610;47008;-65
2023/11/30 00:56:22;;;;;;;11.05;7.30;;;;;;;16.17;100.00;101121.66;143723;599;47002;-66
2023/11/30 00:58:49;;;;;;;8.82;5.60;;;;;;;16.23;100.00;101129.94;143722;572;47006;-65
2023/11/30 01:01:15;;;;;;;8.93;5.28;;;;;;;16.25;100.00;101134.06;143721;570;47004;-67
2023/11/30 01:03:42;;;;;;;9.13;4.37;;;;;;;16.30;100.00;101133.38;143721;645;47010;-65
2023/11/30 01:06:10;;;;;;;9.18;6.00;;;;;;;16.27;100.00;101136.53;143723;583;47004;-65
2023/11/30 01:08:36;;;;;;;9.32;5.12;;;;;;;16.24;100.00;101137.03;143725;613;46006;-64
2023/11/30 01:11:03;;;;;;;9.43;5.05;;;;;;;16.26;100.00;101149.28;143723;603;47004;-66
2023/11/30 01:13:30;;;;;;;7.43;4.78;;;;;;;16.21;100.00;101144.53;143720;603;47010;-65
2023/11/30 01:15:56;;;;;;;8.02;4.47;;;;;;;16.18;100.00;101146.84;143723;593;47004;-66
2023/11/30 01:18:22;;;;;;;8.20;4.97;;;;;;;16.15;100.00;101163.59;143724;588;47006;-66
2023/11/30 01:20:49;;;;;;;12.02;5.07;;;;;;;16.17;100.00;101161.47;143721;613;48002;-65
2023/11/30 01:23:15;;;;;;;8.77;6.05;;;;;;;16.10;100.00;101158.81;143723;601;47010;-66
2023/11/30 01:25:42;;;;;;;11.20;7.60;;;;;;;16.11;100.00;101165.09;143721;643;47004;-67
2023/11/30 01:28:08;;;;;;;12.40;8.38;;;;;;;16.11;100.00;101171.31;143722;662;47006;-65
2023/11/30 01:30:34;;;;;;;13.43;9.45;;;;;;;16.08;100.00;101165.53;143725;570;47002;-67
2023/11/30 01:33:01;;;;;;;13.20;8.48;;;;;;;16.08;100.00;101162.81;143723;570;47008;-65
2023/11/30 01:35:28;;;;;;;14.02;8.60;;;;;;;16.04;100.00;101157.03;143722;576;47004;-65
2023/11/30 01:37:55;;;;;;;12.35;8.85;;;;;;;16.05;100.00;101156.78;143724;607;47006;-65
2023/11/30 01:40:22;;;;;;;13.10;8.57;;;;;;;16.00;100.00;101155.81;143723;624;47002;-65
2023/11/30 01:42:49;;;;;;;19.75;14.90;;;;;;;15.98;100.00;101153.31;143723;593;47010;-66
2023/11/30 01:45:15;;;;;;;19.87;12.37;;;;;;;15.91;100.00;101147.97;143722;577;47004;-67
2023/11/30 01:47:44;;;;;;;15.68;10.32;;;;;;;15.93;100.00;101160.47;143722;568;46006;-67
2023/11/30 01:50:10;;;;;;;12.80;9.50;;;;;;;15.88;100.00;101158.44;143723;574;47002;-66
2023/11/30 01:52:37;;;;;;;16.48;10.18;;;;;;;15.82;100.00;101160.13;143724;579;46010;-68
2023/11/30 01:55:04;;;;;;;14.80;8.70;;;;;;;15.79;100.00;101160.56;143720;588;47931;-66
2023/11/30 01:57:31;;;;;;;12.43;8.32;;;;;;;15.79;100.00;101157.84;143722;574;47006;-66
2023/11/30 01:59:57;;;;;;;12.73;8.07;;;;;;;15.79;100.00;101165.16;143724;584;47002;-66
2023/11/30 04:02:53;;;;;;;11.57;6.45;;;;;;;15.15;100.00;101247.25;143734;586;46026;-67
2023/11/30 04:05:20;;;;;;;12.50;6.95;;;;;;;15.08;100.00;101238.31;143731;566;47004;-66
2023/11/30 04:07:46;;;;;;;16.48;6.95;;;;;;;14.95;100.00;101244.59;143731;574;46007;-65
2023/11/30 04:10:12;;;;;;;10.23;6.75;;;;;;;14.83;100.00;101258.81;143731;617;47004;-66
2023/11/30 04:12:40;;;;;;;9.23;6.53;;;;;;;14.93;100.00;101260.22;143730;588;47010;-65
2023/11/30 04:15:08;;;;;;;10.35;6.55;;;;;;;15.09;100.00;101258.91;143728;592;47004;-67
2023/11/30 04:17:35;;;;;;;11.88;6.57;;;;;;;15.09;100.00;101262.44;143731;576;47006;-66
2023/11/30 04:20:01;;;;;;;10.60;6.37;;;;;;;15.10;100.00;101264.09;143736;580;47000;-66
2023/11/30 04:22:27;;;;;;;15.40;6.72;;;;;;;15.08;100.00;101277.03;143729;595;47008;-66
2023/11/30 04:24:54;;;;;;;11.07;7.72;;;;;;;15.13;100.00;101285.31;143729;616;47004;-66
2023/11/30 04:27:21;;;;;;;12.70;9.38;;;;;;;15.14;100.00;101281.56;143731;604;47006;-67
2023/11/30 04:29:47;;;;;;;14.73;8.40;;;;;;;15.10;100.00;101295.75;143732;591;48006;-66
2023/11/30 04:32:13;;;;;;;19.95;8.38;;;;;;;15.09;100.00;101299.50;143729;592;47008;-66
2023/11/30 04:34:39;;;;;;;12.88;8.07;;;;;;;15.09;100.00;101302.19;143728;597;47004;-65
2023/11/30 04:37:06;;;;;;;13.40;6.85;;;;;;;15.00;100.00;101293.50;143731;574;47006;-65
2023/11/30 04:39:32;;;;;;;11.40;6.50;;;;;;;14.97;100.00;101293.91;143732;614;47004;-64
2023/11/30 04:41:59;;;;;;;9.30;6.18;;;;;;;14.94;100.00;101291.63;143729;586;47008;-66
2023/11/30 04:44:28;;;;;;;12.88;6.85;;;;;;;14.99;100.00;101291.84;143728;566;47004;-65
2023/11/30 04:46:54;;;;;;;10.32;7.20;;;;;;;15.07;100.00;101297.00;143729;615;46007;-65
2023/11/30 04:49:21;;;;;;;15.98;8.43;;;;;;;15.00;100.00;101293.50;143732;572;47000;-66
2023/11/30 04:51:47;;;;;;;17.83;7.12;;;;;;;14.95;100.00;101298.72;143731;597;46010;-66
2023/11/30 04:54:13;;;;;;;10.90;6.45;;;;;;;14.93;100.00;101306.19;143730;611;47004;-66
2023/11/30 04:56:40;;;;;;;13.70;6.82;;;;;;;14.89;100.00;101318.50;143730;570;47006;-65
2023/11/30 04:59:06;;;;;;;21.00;10.25;;;;;;;14.81;100.00;101314.97;143731;578;47004;-65
2023/11/30 05:01:32;;;;;;;19.02;8.73;;;;;;;14.80;100.00;101326.84;143730;618;46011;-64
2023/11/30 05:03:59;;;;;;;23.10;9.57;;;;;;;14.83;100.00;101329.13;143723;639;47004;-66
2023/11/30 05:06:25;;;;;;;12.82;8.60;;;;;;;14.80;100.00;101334.13;143725;591;46006;-66
2023/11/30 05:08:51;;;;;;;16.30;9.50;;;;;;;14.87;100.00;101339.53;143725;581;47002;-65
2023/11/30 05:11:18;;;;;;;17.00;8.93;;;;;;;14.82;100.00;101342.88;143723;605;47008;-66
2023/11/30 05:13:44;;;;;;;19.58;10.02;;;;;;;14.79;100.00;101340.59;143719;584;47004;-66
2023/11/30 05:16:11;;;;;;;23.80;9.85;;;;;;;14.81;100.00;101342.03;143721;605;47920;-66
2023/11/30 05:18:37;;;;;;;25.52;11.40;;;;;;;14.81;100.00;101344.72;143724;595;47002;-66
2023/11/30 05:21:04;;;;;;;21.83;12.93;;;;;;;14.76;100.00;101346.41;143722;616;47008;-66
2023/11/30 05:23:31;;;;;;;21.33;12.93;;;;;;;14.69;100.00;101349.13;143720;635;47004;-65
2023/11/30 05:25:57;;;;;;;26.58;12.35;;;;;;;14.72;100.00;101350.56;143723;577;47006;-66
2023/11/30 05:28:24;;;;;;;26.62;12.40;;;;;;;14.73;100.00;101357.62;143722;621;48002;-66
2023/11/30 05:30:50;;;;;;;21.12;12.55;;;;;;;14.66;100.00;101347.62;143726;581;46009;-64
2023/11/30 05:33:17;;;;;;;23.65;12.45;;;;;;;14.75;100.00;101356.38;143725;576;46004;-73
2023/11/30 05:35:44;;;;;;;21.55;11.30;;;;;;;14.80;100.00;101350.34;143726;573;46006;-65
2023/11/30 05:38:10;;;;;;;24.87;12.20;;;;;;;14.84;100.00;101349.72;143725;585;47002;-64
2023/11/30 05:40:36;;;;;;;35.17;12.55;;;;;;;14.80;100.00;101353.88;143723;573;47010;-66
2023/11/30 05:43:03;;;;;;;33.25;13.85;;;;;;;14.80;100.00;101356.59;143721;592;47006;-66
2023/11/30 05:45:29;;;;;;;24.45;13.60;;;;;;;14.82;100.00;101353.69;143724;610;46009;-66
2023/11/30 05:47:55;;;;;;;27.00;13.95;;;;;;;14.76;100.00;101354.53;143723;660;47006;-68
2023/11/30 05:50:22;;;;;;;24.87;12.85;;;;;;;14.79;100.00;101356.81;143722;624;47004;-66
2023/11/30 05:52:48;;;;;;;22.33;12.95;;;;;;;14.73;100.00;101363.91;143722;591;47006;-66
2023/11/30 05:55:15;;;;;;;34.88;14.68;;;;;;;14.77;100.00;101365.13;143722;568;47008;-67
2023/11/30 05:57:41;;;;;;;28.70;12.85;;;;;;;14.81;100.00;101365.53;143722;596;47004;-67
2023/11/30 06:00:10;;;;;;;31.30;13.40;;;;;;;14.79;100.00;101364.91;143721;604;47012;-66
2023/11/30 06:02:36;;;;;;;37.78;16.58;;;;;;;14.72;100.00;101378.47;143723;616;47004;-66
2023/11/30 06:05:03;;;;;;;39.20;15.82;;;;;;;14.75;100.00;101377.19;143723;607;46008;-68
2023/11/30 06:07:29;;;;;;;30.42;15.00;;;;;;;14.79;100.00;101381.16;143726;573;47006;-66
2023/11/30 06:09:56;;;;;;;30.08;15.63;;;;;;;14.81;100.00;101387.19;143724;576;47010;-66
2023/11/30 06:12:22;;;;;;;23.60;12.63;;;;;;;14.91;100.00;101398.38;143722;627;47006;-68
2023/11/30 06:14:49;;;;;;;25.25;12.68;;;;;;;14.97;100.00;101396.72;143722;573;47008;-66
2023/11/30 06:17:15;;;;;;;30.40;13.73;;;;;;;15.03;100.00;101405.84;143724;582;47004;-67
2023/11/30 06:19:42;;;;;;;23.92;12.43;;;;;;;15.08;100.00;101412.31;143722;610;47010;-67
2023/11/30 06:22:08;;;;;;;26.87;12.43;;;;;;;15.14;100.00;101413.31;143723;582;47006;-66
2023/11/30 06:24:35;;;;;;;31.95;12.23;;;;;;;15.19;100.00;101418.91;143721;650;47926;-67
2023/11/30 06:27:02;;;;;;;29.45;12.13;;;;;;;15.21;100.00;101427.66;143722;585;47006;-67
2023/11/30 06:29:29;;;;;;;30.35;12.63;;;;;;;15.28;100.00;101425.78;143722;621;46925;-68
2023/11/30 06:32:01;;;;;;;25.35;11.10;;;;;;;15.27;100.00;101423.25;143721;569;47006;-67
2023/11/30 06:34:28;;;;;;;28.02;11.43;;;;;;;15.28;100.00;101420.37;143722;580;47008;-66
2023/11/30 06:36:55;;;;;;;23.80;12.15;;;;;;;15.37;100.00;101420.13;143723;590;47004;-67
2023/11/30 06:39:22;;;;;;;22.67;12.52;;;;;;;15.46;100.00;101416.13;143722;602;48010;-67
2023/11/30 06:41:48;;;;;;;37.95;14.38;;;;;;;15.50;100.00;101417.38;143721;597;47006;-68
2023/11/30 06:44:15;;;;;;;21.12;9.82;;;;;;;15.58;100.00;101419.00;143722;627;47009;-67
2023/11/30 06:46:42;;;;;;;24.95;9.63;;;;;;;15.71;100.00;101421.66;143723;587;47004;-67
2023/11/30 06:49:09;;;;;;;30.48;10.73;;;;;;;15.77;100.00;101418.09;143722;607;47010;-67
2023/11/30 06:51:36;;;;;;;19.67;9.32;;;;;;;15.94;100.00;101425.75;143721;589;47007;-67
2023/11/30 06:54:03;;;;;;;15.90;8.25;;;;;;;15.98;100.00;101426.13;143725;578;47008;-67
2023/11/30 06:56:29;;;;;;;18.37;8.75;;;;;;;16.04;100.00;101436.13;143724;628;47004;-66
2023/11/30 06:58:55;;;;;;;22.95;9.23;;;;;;;16.19;100.00;101447.47;143724;573;47012;-67
2023/11/30 07:01:25;;;;;;;17.62;7.20;;;;;;;16.28;100.00;101455.34;143723;624;47006;-66
2023/11/30 07:03:52;;;;;;;13.55;7.12;;;;;;;16.31;100.00;101460.31;143725;610;47008;-67
2023/11/30 07:06:19;;;;;;;20.42;7.37;;;;;;;16.46;100.00;101473.56;143726;580;47006;-65
2023/11/30 07:08:45;;;;;;;19.48;7.87;;;;;;;16.47;100.00;101462.50;143720;570;49010;-67
2023/11/30 07:11:14;;;;;;;15.40;7.03;;;;;;;16.68;100.00;101474.03;143723;644;47006;-67
2023/11/30 07:13:40;;;;;;;18.48;7.47;;;;;;;16.81;100.00;101468.50;143723;631;47008;-67
2023/11/30 07:16:09;;;;;;;16.05;7.00;;;;;;;16.89;100.00;101469.28;143727;587;46008;-67
2023/11/30 07:18:36;;;;;;;20.90;8.13;;;;;;;16.94;100.00;101472.16;143723;649;47012;-67
2023/11/30 07:21:04;;;;;;;23.17;8.55;;;;;;;17.11;100.00;101476.00;143722;564;47006;-66
2023/11/30 07:23:30;;;;;;;15.00;7.22;;;;;;;17.24;100.00;101482.34;143724;652;47008;-67
2023/11/30 07:25:58;;;;;;;20.77;8.30;;;;;;;17.43;100.00;101497.59;143723;582;47006;-67
2023/11/30 07:28:26;;;;;;;21.42;10.32;;;;;;;17.62;100.00;101491.31;143723;573;47011;-67
2023/11/30 07:30:52;;;;;;;20.92;10.27;;;;;;;17.75;100.00;101496.59;143721;590;47006;-67
2023/11/30 07:33:18;;;;;;;21.35;9.48;;;;;;;17.94;100.00;101507.44;143722;619;47008;-68
2023/11/30 07:35:45;;;;;;;17.08;7.93;;;;;;;18.13;99.38;101508.28;143723;583;47004;-67
2023/11/30 07:38:11;;;;;;;16.67;7.65;;;;;;;18.33;97.20;101505.28;143723;570;47010;-67
2023/11/30 07:40:37;;;;;;;15.85;7.57;;;;;;;18.46;96.53;101502.34;143724;648;47006;-67
2023/11/30 07:43:04;;;;;;;17.35;8.82;;;;;;;18.59;94.23;101511.41;143724;573;47008;-67
2023/11/30 07:45:30;;;;;;;16.50;6.70;;;;;;;18.78;93.24;101517.56;143729;596;46009;-66
2023/11/30 07:47:57;;;;;;;16.52;7.07;;;;;;;18.95;93.08;101525.94;143726;589;47012;-67
2023/11/30 07:50:27;;;;;;;12.15;6.10;;;;;;;19.09;92.17;101521.06;143723;579;47006;-66
2023/11/30 07:52:53;;;;;;;14.68;5.97;;;;;;;19.26;91.18;101525.81;143725;599;47008;-67
2023/11/30 07:55:20;;;;;;;9.88;5.10;;;;;;;19.34;89.23;101525.44;143725;572;47004;-68
2023/11/30 07:57:46;;;;;;;14.25;4.87;;;;;;;19.54;88.36;101539.53;143726;638;46011;-66
2023/11/30 08:00:13;;;;;;;13.35;5.90;;;;;;;19.68;87.06;101542.81;143724;574;47006;-67
2023/11/30 08:02:42;;;;;;;11.82;5.20;;;;;;;19.85;86.85;101547.56;143725;600;46008;-66
2023/11/30 08:05:09;;;;;;;10.50;5.62;;;;;;;20.01;86.51;101548.69;143727;611;47006;-67
2023/11/30 08:07:35;;;;;;;14.15;5.57;;;;;;;20.21;83.55;101545.53;143725;597;46925;-67
2023/11/30 08:10:01;;;;;;;8.70;4.87;;;;;;;20.34;82.52;101541.69;143722;580;47006;-67
2023/11/30 08:12:28;;;;;;;12.57;4.70;;;;;;;20.45;81.43;101556.38;143727;785;46008;-66
2023/11/30 08:14:54;;;;;;;11.63;4.95;;;;;;;20.68;81.00;101560.88;143723;570;49009;-68
2023/11/30 08:17:21;;;;;;;13.25;4.37;;;;;;;20.91;80.55;101550.91;143723;984;47010;-67
2023/11/30 08:19:48;;;;;;;9.00;5.28;;;;;;;21.22;80.83;101559.59;143723;600;47006;-66
2023/11/30 08:22:15;;;;;;;10.48;4.18;;;;;;;21.24;79.25;101546.50;143726;809;47008;-66
2023/11/30 08:24:42;;;;;;;12.75;4.97;;;;;;;21.42;77.50;101558.25;143725;784;47004;-67
2023/11/30 08:27:08;;;;;;;10.98;4.50;;;;;;;21.60;76.89;101560.72;143725;700;47012;-67
2023/11/30 08:29:41;;;;;;;9.77;4.35;;;;;;;21.91;75.64;101560.28;143723;609;47006;-66
2023/11/30 08:32:08;;;;;;;12.57;4.93;;;;;;;22.25;74.79;101560.94;143725;594;47008;-66
2023/11/30 08:34:36;;;;;;;20.05;5.57;;;;;;;22.49;73.05;101552.47;143730;580;47006;-65
2023/11/30 08:37:04;;;;;;;17.37;4.93;;;;;;;22.72;73.11;101550.50;143723;579;47010;-66
2023/11/30 08:39:30;;;;;;;8.00;3.90;;;;;;;22.81;71.90;101554.41;143724;633;47006;-66
2023/11/30 08:41:56;;;;;;;16.10;5.43;;;;;;;23.10;70.17;101543.16;143726;698;47008;-66
2023/11/30 08:44:23;;;;;;;13.10;5.82;;;;;;;23.35;69.23;101527.97;143725;590;47004;-66
2023/11/30 08:46:50;;;;;;;11.43;5.03;;;;;;;23.50;68.41;101535.47;143726;597;46012;-66
2023/11/30 08:49:16;;;;;;;11.38;6.22;;;;;;;23.33;68.78;101535.63;143724;569;47006;-65
2023/11/30 08:51:43;;;;;;;11.55;5.40;;;;;;;23.16;70.13;101533.03;143724;680;47009;-66
2023/11/30 08:54:09;;;;;;;10.60;4.55;;;;;;;23.16;73.14;101539.34;143726;602;47006;-66
2023/11/30 08:56:36;;;;;;;5.32;3.47;;;;;;;26.27;68.11;101537.63;143725;575;46012;-66
2023/11/30 08:59:03;;;;;;;9.02;3.78;;;;;;;29.33;60.20;101527.16;143724;597;47006;-67
2023/11/30 09:01:29;;;;;;;8.82;3.22;;;;;;;31.73;53.47;101513.59;143724;593;47925;-66
2023/11/30 09:04:03;;;;;;;12.77;3.00;;;;;;;33.62;48.00;101503.06;143722;566;47004;-66
2023/11/30 09:06:30;;;;;;;7.45;3.50;;;;;;;34.50;42.75;101507.16;143721;623;48010;-66
2023/11/30 09:08:56;;;;;;;7.30;3.22;;;;;;;35.78;41.16;101500.59;143724;593;47006;-68
2023/11/30 09:11:23;;;;;;;5.87;2.85;;;;;;;37.15;37.19;101499.91;143725;620;47008;-66
2023/11/30 09:13:49;;;;;;;5.45;3.03;;;;;;;38.08;35.10;101489.19;143727;623;47006;-66
2023/11/30 09:16:15;;;;;;;6.37;2.90;;;;;;;37.20;35.20;101493.22;143724;575;47010;-67
2023/11/30 09:18:43;;;;;;;9.32;2.80;;;;;;;36.95;33.83;101499.03;143724;642;47006;-67
2023/11/30 09:21:09;;;;;;;7.47;3.22;;;;;;;35.62;34.77;101502.50;143726;567;47008;-67
2023/11/30 09:23:35;;;;;;;8.32;3.00;;;;;;;32.98;37.10;101507.63;143727;572;47004;-67
2023/11/30 09:26:08;;;;;;;7.00;2.87;;;;;;;31.00;39.78;101512.00;143726;669;47006;-66
2023/11/30 09:28:37;;;;;;;4.55;1.98;;;;;;;29.61;39.54;101506.97;143722;573;47004;-67
2023/11/30 09:31:04;;;;;;;8.35;2.90;;;;;;;29.05;41.85;101506.94;143725;588;47008;-66
2023/11/30 09:33:30;;;;;;;4.95;2.42;;;;;;;28.74;42.28;101510.28;143728;658;47006;-67
2023/11/30 09:35:59;;;;;;;9.65;2.83;;;;;;;28.51;42.91;101510.06;143727;634;46011;-66
2023/11/30 09:38:25;;;;;;;9.00;3.30;;;;;;;29.07;41.59;101507.47;143726;700;47004;-66
2023/11/30 09:40:52;;;;;;;7.62;1.58;;;;;;;32.96;37.20;101490.47;143723;583;46008;-66
2023/11/30 09:43:19;;;;;;;3.45;1.40;;;;;;;37.48;32.24;101484.69;143726;595;47004;-66
2023/11/30 09:45:48;;;;;;;2.75;1.50;;;;;;;40.22;29.08;101476.47;143726;584;47012;-66
2023/11/30 09:48:15;;;;;;;4.93;2.95;;;;;;;42.37;27.92;101466.12;143727;592;46010;-67
2023/11/30 09:50:42;;;;;;;5.62;1.98;;;;;;;42.94;26.30;101458.88;143725;720;46009;-67
2023/11/30 09:53:08;;;;;;;6.12;1.95;;;;;;;40.30;28.76;101475.34;143729;574;46012;-67
2023/11/30 09:55:36;;;;;;;4.53;1.65;;;;;;;39.31;28.43;101460.44;143726;592;47012;-67
2023/11/30 09:58:06;;;;;;;5.18;1.70;;;;;;;38.81;28.98;101461.25;143723;619;47004;-66
2023/11/30 10:00:32;;;;;;;5.57;1.62;;;;;;;36.94;31.56;101461.81;143726;643;46925;-67
2023/11/30 10:02:59;;;;;;;4.47;1.98;;;;;;;39.07;30.04;101464.50;143726;583;47004;-66
2023/11/30 10:05:28;;;;;;;5.65;2.08;;;;;;;41.55;28.54;101455.38;143725;589;47004;-67
2023/11/30 10:07:59;;;;;;;5.20;1.92;;;;;;;43.20;27.03;101453.16;143723;615;47004;-68
2023/11/30 10:10:26;;;;;;;6.50;2.25;;;;;;;41.24;27.60;101449.16;143725;566;47006;-68
2023/11/30 10:12:53;;;;;;;5.00;1.95;;;;;;;37.68;30.43;101451.91;143725;586;47002;-67
2023/11/30 10:15:20;;;;;;;4.68;2.10;;;;;;;36.75;30.62;101453.31;143725;736;46920;-67
2023/11/30 10:17:48;;;;;;;5.85;2.30;;;;;;;39.76;29.37;101440.16;143720;641;47928;-68
2023/11/30 10:20:15;;;;;;;5.57;1.98;;;;;;;41.51;27.48;101439.25;143724;583;47007;-68
2023/11/30 10:22:42;;;;;;;5.82;2.17;;;;;;;41.04;27.58;101426.87;143725;584;47002;-67
2023/11/30 10:25:09;;;;;;;7.53;2.40;;;;;;;37.48;29.24;101428.66;143723;640;47004;-67
2023/11/30 10:27:36;;;;;;;5.12;1.90;;;;;;;35.03;30.55;101430.06;143721;607;47928;-66
2023/11/30 10:30:04;;;;;;;5.32;1.87;;;;;;;34.43;30.90;101426.81;143725;591;46016;-66
2023/11/30 10:32:35;;;;;;;3.72;1.35;;;;;;;34.74;30.57;101426.28;143727;597;47004;-67
2023/11/30 10:35:07;;;;;;;3.05;1.52;;;;;;;35.18;30.07;101422.94;143723;629;47008;-67
2023/11/30 10:37:48;;;;;;;4.80;1.50;;;;;;;35.40;30.43;101423.59;143727;624;46008;-67
2023/11/30 10:40:17;;;;;;;4.75;1.98;;;;;;;35.17;30.26;101426.06;143723;634;47002;-67
2023/11/30 10:42:49;;;;;;;6.60;1.80;;;;;;;35.03;29.95;101418.06;143725;573;47004;-68
2023/11/30 10:45:15;;;;;;;6.68;2.03;;;;;;;34.67;31.17;101423.28;143725;633;47008;-68
2023/11/30 10:47:48;;;;;;;5.50;2.00;;;;;;;34.73;30.46;101413.50;143723;642;47004;-67
2023/11/30 10:50:14;;;;;;;4.28;1.70;;;;;;;35.19;30.53;101413.37;143724;649;47922;-67
2023/11/30 10:52:43;;;;;;;5.65;2.28;;;;;;;35.64;30.21;101414.34;143726;605;47004;-67
2023/11/30 10:55:19;;;;;;;4.60;1.73;;;;;;;36.29;29.34;101409.75;143723;588;47008;-67
2023/11/30 10:57:46;;;;;;;4.22;1.95;;;;;;;36.96;29.13;101411.88;143723;601;47004;-67
2023/11/30 11:00:17;;;;;;;5.15;2.72;;;;;;;37.35;27.79;101407.53;143724;795;47006;-66
2023/11/30 11:02:46;;;;;;;4.72;1.85;;;;;;;37.70;28.22;101412.28;143724;585;47002;-67
2023/11/30 11:05:14;;;;;;;9.25;2.67;;;;;;;37.85;27.97;101400.16;143724;674;47009;-68
2023/11/30 11:07:51;;;;;;;7.53;2.50;;;;;;;38.28;27.11;101405.78;143724;596;47002;-67
2023/11/30 11:10:34;;;;;;;7.28;3.35;;;;;;;38.43;27.48;101406.06;143726;648;46006;-67
2023/11/30 11:13:02;;;;;;;6.03;3.22;;;;;;;38.82;27.68;101401.09;143730;577;46009;-67
2023/11/30 11:15:29;;;;;;;7.55;3.20;;;;;;;39.17;26.99;101407.63;143724;603;47010;-67
2023/11/30 11:18:03;;;;;;;6.03;2.15;;;;;;;38.84;27.26;101402.72;143725;771;47006;-67
2023/11/30 11:20:34;;;;;;;5.00;2.33;;;;;;;38.75;27.19;101395.38;143724;607;47008;-66
2023/11/30 11:23:08;;;;;;;4.95;2.08;;;;;;;38.47;26.38;101395.72;143724;593;47006;-67
2023/11/30 11:26:01;;;;;;;4.85;2.20;;;;;;;36.50;28.09;101394.75;143727;619;46012;-67
2023/11/30 11:28:28;;;;;;;7.80;1.90;;;;;;;33.75;28.84;101400.88;143723;586;47004;-67
2023/11/30 11:30:54;;;;;;;4.50;1.70;;;;;;;32.63;32.00;101393.69;143726;606;46923;-68
2023/11/30 11:33:21;;;;;;;8.77;2.22;;;;;;;31.82;32.00;101398.91;143726;613;47006;-67
2023/11/30 11:35:47;;;;;;;3.42;1.90;;;;;;;32.20;32.41;101401.78;143719;570;47011;-67
2023/11/30 11:38:14;;;;;;;5.82;1.98;;;;;;;33.67;31.40;101390.63;143727;615;46010;-67
2023/11/30 11:40:41;;;;;;;6.43;2.15;;;;;;;33.84;31.25;101390.47;143727;576;46008;-67
2023/11/30 11:43:08;;;;;;;8.35;2.30;;;;;;;33.37;32.15;101372.00;143725;568;47004;-67
2023/11/30 11:45:36;;;;;;;4.00;1.80;;;;;;;33.03;33.06;101376.63;143725;581;46010;-66
2023/11/30 11:48:03;;;;;;;3.10;1.55;;;;;;;33.28;32.68;101378.78;143722;594;47006;-67
2023/11/30 11:50:30;;;;;;;5.37;1.77;;;;;;;33.02;33.01;101377.00;143727;631;46008;-66
2023/11/30 11:53:06;;;;;;;3.50;1.73;;;;;;;32.72;33.05;101374.19;143728;575;46008;-67
2023/11/30 11:55:32;;;;;;;3.97;1.98;;;;;;;32.81;33.50;101374.94;143724;603;47926;-67
2023/11/30 11:57:59;;;;;;;4.53;1.83;;;;;;;32.32;33.64;101375.31;143724;586;47007;-67
2023/11/30 12:00:25;;;;;;;3.80;1.60;;;;;;;32.43;33.59;101373.81;143725;654;47008;-67
2023/11/30 12:03:04;;;;;;;4.87;1.77;;;;;;;32.47;33.13;101382.28;143728;572;47002;-67
2023/11/30 12:05:30;;;;;;;4.22;2.00;;;;;;;31.96;33.53;101379.28;143725;580;47013;-66
2023/11/30 12:08:02;;;;;;;4.37;1.58;;;;;;;31.73;33.58;101374.72;143724;572;47006;-66
2023/11/30 12:10:39;;;;;;;4.62;2.12;;;;;;;31.07;34.40;101361.72;143725;638;46006;-66
2023/11/30 12:13:06;;;;;;;5.25;2.50;;;;;;;30.28;35.16;101366.94;143725;588;47002;-67
2023/11/30 12:15:33;;;;;;;5.28;2.20;;;;;;;29.45;35.71;101363.41;143724;611;47004;-66
2023/11/30 12:18:00;;;;;;;3.85;1.65;;;;;;;28.76;36.19;101364.28;143725;578;47004;-66
2023/11/30 12:20:27;;;;;;;4.57;2.20;;;;;;;28.14;37.92;101363.44;143723;567;47000;-67
2023/11/30 12:22:54;;;;;;;7.43;2.45;;;;;;;27.80;38.14;101361.75;143725;588;47002;-69
2023/11/30 12:25:20;;;;;;;4.68;1.92;;;;;;;27.50;38.09;101369.37;143722;604;47010;-67
2023/11/30 12:27:47;;;;;;;9.27;2.00;;;;;;;27.14;38.57;101367.06;143723;618;47006;-67
2023/11/30 12:30:13;;;;;;;9.68;1.92;;;;;;;26.86;38.94;101366.03;143727;602;47008;-67
2023/11/30 12:32:40;;;;;;;5.45;1.92;;;;;;;26.74;39.28;101366.44;143726;738;47006;-67
2023/11/30 12:35:07;;;;;;;5.30;1.55;;;;;;;26.56;37.77;101363.31;143724;584;46027;-69
2023/11/30 12:37:35;;;;;;;5.93;1.80;;;;;;;26.30;38.70;101360.81;143723;623;47006;-69
2023/11/30 12:40:03;;;;;;;4.12;1.85;;;;;;;25.86;38.39;101362.53;143725;745;47008;-68
2023/11/30 12:42:29;;;;;;;5.07;2.55;;;;;;;25.77;38.95;101363.41;143723;593;47004;-69
2023/11/30 12:44:55;;;;;;;4.50;2.20;;;;;;;25.41;39.04;101361.69;143725;704;46012;-68
2023/11/30 12:47:23;;;;;;;3.45;2.42;;;;;;;25.34;39.42;101361.16;143722;575;47006;-69
2023/11/30 12:49:50;;;;;;;5.07;1.90;;;;;;;25.10;39.12;101356.31;143723;600;47009;-67
2023/11/30 12:52:16;;;;;;;7.68;1.95;;;;;;;25.11;40.10;101342.31;143723;585;47006;-67
2023/11/30 12:54:44;;;;;;;6.87;2.58;;;;;;;25.17;39.99;101336.78;143722;609;47012;-68
2023/11/30 12:57:10;;;;;;;5.80;2.12;;;;;;;25.00;39.57;101329.72;143721;569;47006;-68
2023/11/30 12:59:37;;;;;;;9.27;2.97;;;;;;;24.88;40.40;101330.06;143722;574;47008;-70
2023/11/30 13:02:05;;;;;;;4.90;2.22;;;;;;;24.94;40.94;101333.59;143721;593;47004;-68
2023/11/30 13:04:33;;;;;;;5.60;2.65;;;;;;;24.79;40.91;101335.31;143724;588;46924;-67
2023/11/30 13:07:00;;;;;;;5.50;1.98;;;;;;;24.46;40.80;101343.03;143722;635;47006;-71
2023/11/30 13:09:32;;;;;;;5.53;2.12;;;;;;;24.43;41.53;101345.50;143721;567;47008;-70
2023/11/30 13:11:59;;;;;;;6.12;2.03;;;;;;;24.41;42.39;101343.06;143724;579;47005;-69
2023/11/30 13:14:26;;;;;;;6.10;2.58;;;;;;;24.43;42.55;101342.75;143722;625;47010;-69